Time;durP1;ratioP1;P1;durP2;ratioP2;P2;SDS_P1;SDS_P2;PMS_P1;PMS_P2;Temp;Humidity;BMP_temperature;BMP_pressure;BME280_temperature;BME280_humidity;BME280_pressure;Samples;Min_cycle;Max_cycle;Signal;HPM_P1;HPM_P2
2021/06/18 00:00:36;;;;;;;2.40;2.30;;;;;26.40;100236.00;;;;2075088;28;20292;-57
2021/06/18 00:01:36;;;;;;;2.60;2.40;;;;;26.40;100239.00;;;;2072719;28;20508;-57
2021/06/18 00:02:37;;;;;;;1.80;1.70;;;;;26.40;100235.00;;;;2080986;28;20217;-58
2021/06/18 00:03:37;;;;;;;2.00;1.90;;;;;26.40;100241.00;;;;2079772;28;20320;-58
2021/06/18 00:04:38;;;;;;;2.23;2.03;;;;;26.40;100238.00;;;;2079713;28;20468;-57
2021/06/18 00:05:38;;;;;;;1.93;1.83;;;;;26.40;100231.00;;;;2079780;28;20217;-57
2021/06/18 00:06:38;;;;;;;2.20;2.00;;;;;26.40;100234.00;;;;2079762;28;20225;-57
2021/06/18 00:07:40;;;;;;;2.07;1.97;;;;;26.40;100236.00;;;;2079810;28;20313;-58
2021/06/18 00:08:41;;;;;;;2.10;2.00;;;;;26.40;100231.00;;;;2076139;28;20218;-58
2021/06/18 00:09:41;;;;;;;1.57;1.47;;;;;26.40;100232.00;;;;2073388;28;20453;-57
2021/06/18 00:10:41;;;;;;;2.40;2.20;;;;;26.40;100226.00;;;;2072321;28;20214;-57
2021/06/18 00:11:42;;;;;;;2.93;2.10;;;;;26.40;100223.00;;;;2070865;28;20298;-57
2021/06/18 00:12:42;;;;;;;2.20;2.00;;;;;26.40;100229.00;;;;2071581;28;20214;-58
2021/06/18 00:13:43;;;;;;;2.03;1.90;;;;;26.40;100227.00;;;;2071615;28;20688;-57
2021/06/18 00:14:43;;;;;;;1.93;1.83;;;;;26.40;100154.00;;;;2071731;28;20222;-57
2021/06/18 00:15:44;;;;;;;3.00;2.30;;;;;26.40;100233.00;;;;2070889;28;20619;-57
2021/06/18 00:16:44;;;;;;;2.30;2.10;;;;;26.40;100243.00;;;;2074417;28;20214;-58
2021/06/18 00:17:46;;;;;;;2.30;2.00;;;;;26.40;100243.00;;;;2079765;28;20296;-57
2021/06/18 00:18:46;;;;;;;2.58;2.38;;;;;26.40;100241.00;;;;2077450;28;20305;-57
2021/06/18 00:19:46;;;;;;;2.20;2.10;;;;;26.40;100250.00;;;;2079829;28;20589;-58
2021/06/18 00:20:47;;;;;;;2.10;2.00;;;;;26.40;100241.00;;;;2073227;28;20205;-58
2021/06/18 00:21:47;;;;;;;2.30;2.20;;;;;26.40;100242.00;;;;2074311;28;20226;-57
2021/06/18 00:22:48;;;;;;;2.20;2.10;;;;;26.40;100245.00;;;;2079862;28;20209;-59
2021/06/18 00:23:48;;;;;;;4.43;2.27;;;;;26.40;100250.00;;;;2079672;28;20456;-57
2021/06/18 00:24:49;;;;;;;2.27;2.17;;;;;26.40;100243.00;;;;2076042;28;20702;-57
2021/06/18 00:25:49;;;;;;;2.47;2.37;;;;;26.40;100247.00;;;;2075869;28;20222;-64
2021/06/18 00:26:49;;;;;;;2.60;2.40;;;;;26.40;100251.00;;;;2072568;28;20221;-57
2021/06/18 00:27:52;;;;;;;2.23;2.10;;;;;26.40;100246.00;;;;2092169;28;20224;-57
2021/06/18 00:28:52;;;;;;;2.13;2.03;;;;;26.40;100250.00;;;;2084703;28;20212;-57
2021/06/18 00:29:52;;;;;;;2.50;2.30;;;;;26.40;100254.00;;;;2071438;28;20356;-57
2021/06/18 00:30:53;;;;;;;3.00;2.70;;;;;26.40;100257.00;;;;2074820;28;20324;-57
2021/06/18 00:31:53;;;;;;;2.50;2.30;;;;;26.40;100262.00;;;;2078633;28;20205;-57
2021/06/18 00:32:54;;;;;;;2.50;2.40;;;;;26.40;100251.00;;;;2079271;28;20359;-57
2021/06/18 00:33:54;;;;;;;2.50;2.30;;;;;26.40;100256.00;;;;2079430;28;20228;-57
2021/06/18 00:34:54;;;;;;;2.40;2.30;;;;;26.40;100256.00;;;;2071811;28;20305;-57
2021/06/18 00:35:55;;;;;;;1.93;1.83;;;;;26.40;100255.00;;;;2072775;28;20215;-57
2021/06/18 00:36:55;;;;;;;2.47;2.27;;;;;26.40;100241.00;;;;2071395;28;20198;-57
2021/06/18 00:37:55;;;;;;;2.60;2.40;;;;;26.40;100249.00;;;;2071676;28;20714;-58
2021/06/18 00:38:56;;;;;;;2.30;2.10;;;;;26.40;100239.00;;;;2070847;28;20722;-57
2021/06/18 00:39:56;;;;;;;2.20;2.10;;;;;26.40;100236.00;;;;2070699;28;20229;-57
2021/06/18 00:40:56;;;;;;;2.23;2.10;;;;;26.40;100234.00;;;;2074778;28;20202;-56
2021/06/18 00:41:57;;;;;;;2.30;2.20;;;;;26.40;100239.00;;;;2075994;28;20201;-57
2021/06/18 00:42:57;;;;;;;2.30;2.20;;;;;26.40;100235.00;;;;2078912;28;20202;-58
2021/06/18 00:43:57;;;;;;;2.37;2.23;;;;;26.40;100235.00;;;;2080008;28;20288;-57
2021/06/18 00:44:58;;;;;;;2.60;2.40;;;;;26.40;100239.00;;;;2079413;28;20217;-57
2021/06/18 00:45:58;;;;;;;2.30;2.10;;;;;26.40;100238.00;;;;2079276;28;20438;-56
2021/06/18 00:46:58;;;;;;;2.30;2.20;;;;;26.40;100243.00;;;;2078974;28;20239;-55
2021/06/18 00:47:59;;;;;;;2.77;2.57;;;;;26.40;100241.00;;;;2079504;28;20206;-57
2021/06/18 00:49:00;;;;;;;2.33;2.23;;;;;26.40;100248.00;;;;2074638;28;20210;-55
2021/06/18 00:50:00;;;;;;;2.33;2.23;;;;;26.40;100250.00;;;;2074476;28;20456;-58
2021/06/18 00:51:01;;;;;;;2.53;2.07;;;;;26.40;100260.00;;;;2076010;28;20213;-57
2021/06/18 00:52:01;;;;;;;2.10;2.00;;;;;26.40;100243.00;;;;2080546;28;20213;-58
2021/06/18 00:53:02;;;;;;;2.40;2.30;;;;;26.40;100250.00;;;;2078665;28;20296;-58
2021/06/18 00:54:02;;;;;;;2.37;2.27;;;;;26.40;100251.00;;;;2070638;28;20261;-57
2021/06/18 00:55:03;;;;;;;2.50;2.40;;;;;26.40;100246.00;;;;2070567;28;20297;-57
2021/06/18 00:56:03;;;;;;;2.47;2.37;;;;;26.40;100247.00;;;;2070863;28;20232;-57
2021/06/18 00:57:04;;;;;;;2.50;2.30;;;;;26.40;100249.00;;;;2070605;28;20202;-58
2021/06/18 00:58:04;;;;;;;2.60;2.40;;;;;26.40;100249.00;;;;2062440;28;20773;-58
2021/06/18 00:59:05;;;;;;;3.37;2.70;;;;;26.40;100250.00;;;;2078381;28;20213;-56
2021/06/18 01:00:10;;;;;;;2.40;2.20;;;;;26.40;100250.00;;;;2088984;28;20245;-57
2021/06/18 01:01:11;;;;;;;2.70;2.50;;;;;26.40;100239.00;;;;2074951;28;20218;-56
2021/06/18 01:02:11;;;;;;;2.43;2.33;;;;;26.40;100245.00;;;;2073152;28;20540;-57
2021/06/18 01:03:11;;;;;;;2.73;2.53;;;;;26.40;100249.00;;;;2071295;28;20220;-57
2021/06/18 01:04:12;;;;;;;2.77;2.57;;;;;26.40;100247.00;;;;2071014;28;20241;-57
2021/06/18 01:05:13;;;;;;;2.37;2.27;;;;;26.40;100246.00;;;;2070493;28;20213;-57
2021/06/18 01:06:22;;;;;;;2.57;2.37;;;;;26.40;100238.00;;;;2073929;28;20622;-57
2021/06/18 01:07:30;;;;;;;2.70;2.50;;;;;26.40;100248.00;;;;2074115;28;20554;-57
2021/06/18 01:08:39;;;;;;;2.90;2.70;;;;;26.40;100243.00;;;;2063374;28;20464;-57
2021/06/18 01:09:51;;;;;;;2.50;2.40;;;;;26.40;100235.00;;;;2071899;28;22464;-57
2021/06/18 01:11:17;;;;;;;2.25;2.15;;;;;26.40;100238.00;;;;2073878;28;20572;-57
2021/06/18 01:12:18;;;;;;;2.53;2.30;;;;;26.40;100234.00;;;;2074598;28;20224;-57
2021/06/18 01:13:33;;;;;;;2.17;2.07;;;;;26.40;100234.00;;;;2076512;28;20483;-57
2021/06/18 01:14:46;;;;;;;2.13;2.03;;;;;26.40;100239.00;;;;2081078;28;20444;-57
2021/06/18 01:16:08;;;;;;;2.25;2.05;;;;;26.40;100231.00;;;;2091065;28;21048;-57
2021/06/18 01:17:08;;;;;;;2.67;2.47;;;;;26.40;100229.00;;;;2077529;28;20249;-58
2021/06/18 01:18:11;;;;;;;3.00;2.60;;;;;26.40;100225.00;;;;2080095;28;20464;-58
2021/06/18 01:19:23;;;;;;;2.67;2.50;;;;;26.40;100215.00;;;;2078073;28;20292;-58
2021/06/18 01:20:48;;;;;;;2.15;2.05;;;;;26.40;100224.00;;;;2077735;28;20460;-58
2021/06/18 01:21:55;;;;;;;2.23;2.13;;;;;26.40;100220.00;;;;2074956;28;20225;-58
2021/06/18 01:22:55;;;;;;;2.87;2.67;;;;;26.40;100228.00;;;;2069784;28;20441;-58
2021/06/18 01:24:03;;;;;;;2.47;2.27;;;;;26.40;100228.00;;;;2073604;28;20974;-57
2021/06/18 01:25:12;;;;;;;2.25;2.15;;;;;26.40;100228.00;;;;2071181;28;20648;-58
2021/06/18 01:26:31;;;;;;;2.57;2.37;;;;;26.40;100226.00;;;;2078235;28;20228;-57
2021/06/18 01:27:31;;;;;;;2.40;2.20;;;;;26.40;100229.00;;;;2074445;28;20539;-57
2021/06/18 01:28:56;;;;;;;2.37;2.17;;;;;26.40;100226.00;;;;2079256;28;20440;-57
2021/06/18 01:30:08;;;;;;;2.37;2.20;;;;;26.40;100217.00;;;;2064419;28;20246;-57
2021/06/18 01:31:10;;;;;;;2.45;2.25;;;;;26.40;100222.00;;;;2063269;28;20505;-57
2021/06/18 01:32:14;;;;;;;2.97;2.47;;;;;26.40;100219.00;;;;2072851;28;20301;-57
2021/06/18 01:33:15;;;;;;;2.40;2.23;;;;;26.40;100209.00;;;;2066892;28;20963;-57
2021/06/18 01:34:18;;;;;;;2.53;2.33;;;;;26.40;100201.00;;;;2071565;28;20457;-57
2021/06/18 01:35:19;;;;;;;2.87;2.67;;;;;26.40;100201.00;;;;2069128;28;20883;-58
2021/06/18 01:36:20;;;;;;;2.40;2.30;;;;;26.40;100202.00;;;;2070338;28;20453;-58
2021/06/18 01:37:21;;;;;;;2.97;2.57;;;;;26.40;100189.00;;;;2071398;28;20456;-59
2021/06/18 01:38:22;;;;;;;2.30;2.10;;;;;26.40;100204.00;;;;2062246;28;20225;-57
2021/06/18 01:39:22;;;;;;;2.57;2.47;;;;;26.40;100198.00;;;;2067246;28;20218;-58
2021/06/18 01:40:23;;;;;;;2.80;2.60;;;;;26.40;100190.00;;;;2070229;28;20218;-57
2021/06/18 01:41:28;;;;;;;3.00;2.73;;;;;26.40;100194.00;;;;2069522;28;20221;-58
2021/06/18 01:42:28;;;;;;;2.90;2.70;;;;;26.40;100189.00;;;;2071119;28;20744;-58
2021/06/18 01:43:29;;;;;;;2.93;2.73;;;;;26.40;100187.00;;;;2070942;28;20464;-57
2021/06/18 01:44:30;;;;;;;2.40;2.25;;;;;26.40;100185.00;;;;2070216;28;20352;-57
2021/06/18 01:45:30;;;;;;;2.40;2.20;;;;;26.40;100174.00;;;;2069004;28;20687;-57
2021/06/18 01:46:33;;;;;;;2.67;2.47;;;;;26.40;100175.00;;;;2080008;28;20279;-57
2021/06/18 01:47:33;;;;;;;2.90;2.70;;;;;26.40;100182.00;;;;2080707;28;20232;-57
2021/06/18 01:48:33;;;;;;;2.57;2.37;;;;;26.40;100186.00;;;;2088490;28;20455;-57
2021/06/18 01:49:36;;;;;;;3.00;2.80;;;;;26.40;100190.00;;;;2088187;28;20208;-57
2021/06/18 01:50:36;;;;;;;2.97;2.70;;;;;26.40;100179.00;;;;2080157;28;20858;-58
2021/06/18 01:51:36;;;;;;;2.00;1.90;;;;;26.40;100189.00;;;;2080883;28;20213;-58
2021/06/18 01:52:38;;;;;;;2.37;2.27;;;;;26.40;100184.00;;;;2074198;28;20289;-58
2021/06/18 01:53:42;;;;;;;2.33;2.23;;;;;26.40;100189.00;;;;2071828;28;20245;-58
2021/06/18 01:54:43;;;;;;;2.90;2.70;;;;;26.40;100193.00;;;;2072360;28;20441;-59
2021/06/18 01:55:44;;;;;;;2.80;2.57;;;;;26.40;100187.00;;;;2080291;28;20476;-58
2021/06/18 01:56:44;;;;;;;2.60;2.40;;;;;26.40;100191.00;;;;2088085;28;20481;-57
2021/06/18 01:57:44;;;;;;;3.27;3.07;;;;;26.40;100184.00;;;;2086743;28;20209;-57
2021/06/18 01:58:46;;;;;;;2.80;2.60;;;;;26.40;100183.00;;;;2080016;28;20217;-59
2021/06/18 01:59:47;;;;;;;2.70;2.50;;;;;26.40;100181.00;;;;2071074;28;20269;-57
2021/06/18 02:00:48;;;;;;;2.90;2.70;;;;;26.40;100185.00;;;;2074776;28;20507;-57
2021/06/18 02:01:49;;;;;;;2.90;2.70;;;;;26.40;100185.00;;;;2071519;28;20688;-57
2021/06/18 02:02:50;;;;;;;2.60;2.50;;;;;26.40;100192.00;;;;2075324;28;20449;-57
2021/06/18 02:03:50;;;;;;;2.73;2.53;;;;;26.40;100188.00;;;;2071877;28;20420;-57
2021/06/18 02:04:50;;;;;;;2.60;2.50;;;;;26.40;100187.00;;;;2063133;28;20481;-57
2021/06/18 02:05:52;;;;;;;2.90;2.70;;;;;26.40;100196.00;;;;2072437;28;20218;-57
2021/06/18 02:06:52;;;;;;;2.93;2.73;;;;;26.40;100191.00;;;;2080050;28;20758;-57
2021/06/18 02:07:53;;;;;;;2.80;2.60;;;;;26.40;100192.00;;;;2080008;28;20460;-57
2021/06/18 02:08:55;;;;;;;2.60;2.40;;;;;26.40;100194.00;;;;2088249;28;20241;-57
2021/06/18 02:09:57;;;;;;;3.10;2.90;;;;;26.40;100185.00;;;;2079518;28;20843;-57
2021/06/18 02:10:57;;;;;;;2.67;2.47;;;;;26.40;100190.00;;;;2061541;28;20446;-62
2021/06/18 02:11:58;;;;;;;3.47;3.17;;;;;26.40;100195.00;;;;2088134;28;20995;-56
2021/06/18 02:12:58;;;;;;;2.80;2.60;;;;;26.40;100191.00;;;;2079645;28;20850;-56
2021/06/18 02:13:59;;;;;;;2.70;2.50;;;;;26.40;100189.00;;;;2077987;28;20564;-59
2021/06/18 02:15:00;;;;;;;2.87;2.67;;;;;26.40;100185.00;;;;2068080;28;20253;-62
2021/06/18 02:16:00;;;;;;;2.53;2.33;;;;;26.40;100182.00;;;;2079726;28;20294;-61
2021/06/18 02:17:01;;;;;;;2.87;2.67;;;;;26.40;100191.00;;;;2073138;28;20220;-58
2021/06/18 02:18:02;;;;;;;2.90;2.70;;;;;26.40;100185.00;;;;2080100;28;20233;-57
2021/06/18 02:19:02;;;;;;;2.70;2.57;;;;;26.40;100178.00;;;;2080746;28;20484;-56
2021/06/18 02:20:05;;;;;;;3.00;2.70;;;;;26.40;100182.00;;;;2079934;28;20581;-56
2021/06/18 02:21:05;;;;;;;2.80;2.60;;;;;26.40;100180.00;;;;2079165;28;20571;-56
2021/06/18 02:22:06;;;;;;;2.90;2.70;;;;;26.40;100176.00;;;;2071399;28;20500;-63
2021/06/18 02:23:07;;;;;;;2.43;2.33;;;;;26.40;100173.00;;;;2066738;28;20231;-56
2021/06/18 02:24:07;;;;;;;2.50;2.30;;;;;26.40;100174.00;;;;2072230;28;20453;-56
2021/06/18 02:25:08;;;;;;;2.60;2.33;;;;;26.40;100172.00;;;;2071590;28;20306;-60
2021/06/18 02:26:09;;;;;;;3.10;2.90;;;;;26.40;100167.00;;;;2064973;28;20362;-63
2021/06/18 02:27:13;;;;;;;2.90;2.50;;;;;26.40;100168.00;;;;2063447;28;20458;-58
2021/06/18 02:28:13;;;;;;;2.60;2.40;;;;;26.40;100170.00;;;;2072507;28;20489;-56
2021/06/18 02:29:14;;;;;;;2.47;2.27;;;;;26.40;100162.00;;;;2079791;28;20449;-60
2021/06/18 02:30:15;;;;;;;2.93;2.60;;;;;26.40;100168.00;;;;2078234;28;20209;-56
2021/06/18 02:31:15;;;;;;;2.53;2.33;;;;;26.40;100170.00;;;;2057573;28;20242;-62
2021/06/18 02:32:16;;;;;;;2.47;2.37;;;;;26.40;100176.00;;;;2074320;28;20818;-59
2021/06/18 02:33:16;;;;;;;2.90;2.70;;;;;26.40;100178.00;;;;2095790;28;20208;-60
2021/06/18 02:34:17;;;;;;;2.93;2.63;;;;;26.40;100171.00;;;;2072843;28;20234;-60
2021/06/18 02:35:17;;;;;;;2.77;2.57;;;;;26.40;100176.00;;;;2072579;28;20309;-56
2021/06/18 02:36:18;;;;;;;2.80;2.60;;;;;26.40;100184.00;;;;2073525;28;20206;-56
2021/06/18 02:37:18;;;;;;;3.30;3.00;;;;;26.40;100177.00;;;;2079832;28;20379;-59
2021/06/18 02:38:18;;;;;;;3.20;2.90;;;;;26.40;100181.00;;;;2080722;28;20713;-59
2021/06/18 02:39:19;;;;;;;2.73;2.60;;;;;26.40;100177.00;;;;2076516;28;20588;-60
2021/06/18 02:40:19;;;;;;;2.87;2.67;;;;;26.40;100179.00;;;;2072343;28;20790;-59
2021/06/18 02:41:19;;;;;;;2.97;2.77;;;;;26.40;100177.00;;;;2071770;28;20648;-59
2021/06/18 02:42:20;;;;;;;2.50;2.40;;;;;26.40;100177.00;;;;2072485;28;20630;-63
2021/06/18 02:43:20;;;;;;;2.70;2.50;;;;;26.40;100181.00;;;;2074240;28;20202;-57
2021/06/18 02:44:21;;;;;;;2.93;2.73;;;;;26.40;100177.00;;;;2072187;28;20234;-57
2021/06/18 02:45:21;;;;;;;3.03;2.83;;;;;26.40;100170.00;;;;2072105;28;20293;-57
2021/06/18 02:46:41;;;;;;;2.63;2.50;;;;;26.40;100173.00;;;;2072032;28;20654;-57
2021/06/18 02:47:44;;;;;;;2.77;2.60;;;;;26.40;100170.00;;;;2071751;28;20233;-59
2021/06/18 02:48:46;;;;;;;3.13;2.93;;;;;26.40;100165.00;;;;2071707;28;20456;-57
2021/06/18 02:49:57;;;;;;;2.97;2.77;;;;;26.40;100164.00;;;;2071518;28;20457;-57
2021/06/18 02:51:00;;;;;;;3.00;2.80;;;;;26.40;100126.00;;;;2080995;28;20937;-58
2021/06/18 02:52:10;;;;;;;2.93;2.63;;;;;26.40;100170.00;;;;2085347;28;20439;-57
2021/06/18 02:53:17;;;;;;;2.83;2.63;;;;;26.40;100165.00;;;;2076681;28;20453;-57
2021/06/18 02:54:25;;;;;;;2.80;2.60;;;;;26.40;100166.00;;;;2071410;28;20447;-58
2021/06/18 02:55:41;;;;;;;2.58;2.38;;;;;26.40;100162.00;;;;2070635;28;20445;-57
2021/06/18 02:56:43;;;;;;;2.93;2.73;;;;;26.40;100155.00;;;;2070271;28;20566;-57
2021/06/18 02:57:55;;;;;;;2.73;2.53;;;;;26.40;100166.00;;;;2091336;28;20537;-57
2021/06/18 02:59:29;;;;;;;3.27;3.07;;;;;26.40;100160.00;;;;2080979;28;20482;-58
2021/06/18 03:00:29;;;;;;;2.80;2.60;;;;;26.40;100155.00;;;;2080003;28;20455;-57
2021/06/18 03:01:30;;;;;;;2.90;2.70;;;;;26.40;100163.00;;;;2095643;28;20481;-58
2021/06/18 03:02:33;;;;;;;3.00;2.80;;;;;26.40;100157.00;;;;2087813;28;20284;-57
2021/06/18 03:03:40;;;;;;;2.93;2.73;;;;;26.40;100162.00;;;;2079443;28;20445;-57
2021/06/18 03:04:41;;;;;;;2.83;2.63;;;;;26.40;100162.00;;;;2088639;28;20471;-57
2021/06/18 03:05:42;;;;;;;2.93;2.73;;;;;26.40;100165.00;;;;2087758;28;20839;-57
2021/06/18 03:06:42;;;;;;;2.67;2.50;;;;;26.40;100165.00;;;;2079338;28;20467;-57
2021/06/18 03:07:45;;;;;;;3.10;2.90;;;;;26.40;100165.00;;;;2083157;28;20685;-57
2021/06/18 03:08:46;;;;;;;2.90;2.67;;;;;26.40;100165.00;;;;2068137;28;20218;-58
2021/06/18 03:09:50;;;;;;;2.80;2.60;;;;;26.40;100166.00;;;;2075671;28;20464;-57
2021/06/18 03:10:51;;;;;;;2.73;2.63;;;;;26.40;100169.00;;;;2071236;28;20484;-57
2021/06/18 03:11:51;;;;;;;2.90;2.70;;;;;26.40;100161.00;;;;2073809;28;20453;-57
2021/06/18 03:13:00;;;;;;;3.13;2.93;;;;;26.40;100163.00;;;;2071178;28;20276;-57
2021/06/18 03:14:03;;;;;;;2.83;2.63;;;;;26.40;100166.00;;;;2080332;28;20336;-58
2021/06/18 03:15:05;;;;;;;2.80;2.60;;;;;26.40;100165.00;;;;2087010;28;20451;-57
2021/06/18 03:16:06;;;;;;;2.80;2.60;;;;;26.40;100164.00;;;;2079331;28;20502;-57
2021/06/18 03:17:09;;;;;;;3.10;2.80;;;;;26.40;100171.00;;;;2080019;28;20495;-57
2021/06/18 03:18:10;;;;;;;3.27;3.07;;;;;26.40;100165.00;;;;2071380;28;20206;-59
2021/06/18 03:19:10;;;;;;;2.93;2.73;;;;;26.40;100171.00;;;;2079063;28;20465;-57
2021/06/18 03:20:15;;;;;;;3.10;2.90;;;;;26.40;100159.00;;;;2074911;28;20491;-58
2021/06/18 03:21:15;;;;;;;2.87;2.67;;;;;26.40;100165.00;;;;2071125;28;20213;-59
2021/06/18 03:22:16;;;;;;;2.50;2.40;;;;;26.40;100167.00;;;;2073209;28;20580;-57
2021/06/18 03:23:16;;;;;;;3.00;2.80;;;;;26.40;100180.00;;;;2074976;28;20272;-57
2021/06/18 03:24:16;;;;;;;3.03;2.83;;;;;26.40;100167.00;;;;2064828;28;20207;-58
2021/06/18 03:25:17;;;;;;;2.87;2.67;;;;;26.40;100171.00;;;;2064880;28;20203;-57
2021/06/18 03:26:17;;;;;;;3.00;2.80;;;;;26.40;100179.00;;;;2074407;28;20202;-60
2021/06/18 03:27:20;;;;;;;3.00;2.80;;;;;26.40;100181.00;;;;2075800;28;20198;-58
2021/06/18 03:28:20;;;;;;;2.50;2.40;;;;;26.40;100171.00;;;;2070037;28;20272;-60
2021/06/18 03:29:21;;;;;;;3.27;3.07;;;;;26.40;100174.00;;;;2071436;28;20245;-58
2021/06/18 03:30:21;;;;;;;3.40;3.10;;;;;26.40;100177.00;;;;2077128;28;20301;-57
2021/06/18 03:31:23;;;;;;;3.10;2.90;;;;;26.40;100182.00;;;;2076152;28;20219;-57
2021/06/18 03:32:23;;;;;;;3.07;2.87;;;;;26.40;100185.00;;;;2078613;28;20781;-58
2021/06/18 03:33:23;;;;;;;3.07;2.87;;;;;26.30;100177.00;;;;2079255;28;20461;-57
2021/06/18 03:34:26;;;;;;;2.60;2.40;;;;;26.40;100177.00;;;;2076034;28;20209;-57
2021/06/18 03:35:26;;;;;;;3.10;2.90;;;;;26.40;100174.00;;;;2069627;28;20222;-57
2021/06/18 03:36:27;;;;;;;3.20;3.00;;;;;26.40;100176.00;;;;2072300;28;20792;-57
2021/06/18 03:37:27;;;;;;;2.93;2.73;;;;;26.40;100176.00;;;;2087055;28;20213;-57
2021/06/18 03:38:28;;;;;;;2.80;2.60;;;;;26.40;100177.00;;;;2087562;28;20224;-56
2021/06/18 03:39:28;;;;;;;3.17;2.97;;;;;26.40;100164.00;;;;2071064;28;20726;-59
2021/06/18 03:40:29;;;;;;;2.97;2.77;;;;;26.40;100185.00;;;;2079208;28;20462;-64
2021/06/18 03:41:29;;;;;;;3.17;2.97;;;;;26.40;100175.00;;;;2086787;28;20217;-60
2021/06/18 03:42:29;;;;;;;2.90;2.70;;;;;26.40;100179.00;;;;2075672;28;20750;-62
2021/06/18 03:43:30;;;;;;;3.37;3.17;;;;;26.40;100181.00;;;;2070668;28;20598;-65
2021/06/18 03:44:30;;;;;;;3.40;3.20;;;;;26.40;100188.00;;;;2076351;28;20710;-57
2021/06/18 03:45:31;;;;;;;3.27;3.07;;;;;26.40;100183.00;;;;2087244;28;20233;-57
2021/06/18 03:46:31;;;;;;;3.67;3.10;;;;;26.40;100187.00;;;;2078287;28;20252;-58
2021/06/18 03:47:32;;;;;;;3.17;2.87;;;;;26.40;100186.00;;;;2055045;28;20235;-58
2021/06/18 03:48:32;;;;;;;3.67;3.37;;;;;26.40;100185.00;;;;2063001;28;20775;-58
2021/06/18 03:49:32;;;;;;;3.27;2.97;;;;;26.30;100184.00;;;;2062809;28;20702;-58
2021/06/18 03:50:33;;;;;;;3.20;3.00;;;;;26.40;100187.00;;;;2070985;28;20214;-58
2021/06/18 03:51:36;;;;;;;3.20;3.00;;;;;26.40;100186.00;;;;2062520;28;20215;-58
2021/06/18 03:52:36;;;;;;;2.93;2.70;;;;;26.40;100171.00;;;;2070107;28;20577;-58
2021/06/18 03:53:37;;;;;;;3.60;3.30;;;;;26.40;100181.00;;;;2073298;28;20453;-57
2021/06/18 03:54:38;;;;;;;3.00;2.80;;;;;26.40;100181.00;;;;2070919;28;20206;-58
2021/06/18 03:55:38;;;;;;;3.27;2.97;;;;;26.40;100176.00;;;;2070864;28;20568;-56
2021/06/18 03:56:39;;;;;;;3.43;3.23;;;;;26.40;100188.00;;;;2082794;28;20697;-58
2021/06/18 03:57:40;;;;;;;3.10;2.90;;;;;26.40;100183.00;;;;2079454;28;20583;-58
2021/06/18 03:58:41;;;;;;;3.40;3.20;;;;;26.40;100181.00;;;;2071101;28;20461;-58
2021/06/18 03:59:41;;;;;;;3.80;2.97;;;;;26.40;100178.00;;;;2070304;28;20469;-59
2021/06/18 04:00:42;;;;;;;3.37;3.07;;;;;26.40;100174.00;;;;2079114;28;20857;-58
2021/06/18 04:01:44;;;;;;;3.30;3.10;;;;;26.40;100174.00;;;;2079547;28;20217;-58
2021/06/18 04:02:45;;;;;;;4.03;3.20;;;;;26.40;100172.00;;;;2070494;28;20481;-58
2021/06/18 04:03:46;;;;;;;3.60;3.30;;;;;26.40;100188.00;;;;2070242;28;20452;-58
2021/06/18 04:04:46;;;;;;;2.80;2.70;;;;;26.40;100173.00;;;;2063396;28;20223;-57
2021/06/18 04:05:47;;;;;;;2.97;2.77;;;;;26.40;100183.00;;;;2083054;28;20743;-57
2021/06/18 04:06:47;;;;;;;2.97;2.77;;;;;26.30;100181.00;;;;2074092;28;20674;-58
2021/06/18 04:07:48;;;;;;;3.03;2.83;;;;;26.40;100181.00;;;;2070805;28;20674;-58
2021/06/18 04:08:49;;;;;;;3.20;3.00;;;;;26.40;100183.00;;;;2086873;28;20238;-56
2021/06/18 04:09:49;;;;;;;3.73;3.53;;;;;26.40;100181.00;;;;2087393;28;20490;-57
2021/06/18 04:10:50;;;;;;;2.80;2.60;;;;;26.40;100183.00;;;;2077178;28;20213;-58
2021/06/18 04:11:50;;;;;;;3.13;2.93;;;;;26.40;100177.00;;;;2078665;28;20210;-58
2021/06/18 04:12:51;;;;;;;3.20;2.90;;;;;26.40;100173.00;;;;2079124;28;20213;-57
2021/06/18 04:13:51;;;;;;;3.60;3.40;;;;;26.40;100177.00;;;;2078927;28;20317;-58
2021/06/18 04:14:52;;;;;;;3.40;3.20;;;;;26.40;100173.00;;;;2087173;28;20247;-58
2021/06/18 04:15:53;;;;;;;3.30;3.10;;;;;26.40;100173.00;;;;2073908;28;20306;-57
2021/06/18 04:16:53;;;;;;;3.00;2.80;;;;;26.40;100172.00;;;;2073797;28;20454;-58
2021/06/18 04:17:53;;;;;;;3.30;3.10;;;;;26.40;100173.00;;;;2071618;28;20210;-58
2021/06/18 04:18:54;;;;;;;3.30;3.10;;;;;26.40;100176.00;;;;2071569;28;20670;-58
2021/06/18 04:19:54;;;;;;;3.03;2.83;;;;;26.30;100175.00;;;;2073018;28;20217;-57
2021/06/18 04:20:54;;;;;;;3.00;2.80;;;;;26.40;100180.00;;;;2070669;28;20214;-57
2021/06/18 04:21:55;;;;;;;3.40;3.20;;;;;26.40;100168.00;;;;2070202;28;20238;-61
2021/06/18 04:22:55;;;;;;;3.30;3.10;;;;;26.40;100170.00;;;;2079110;28;20228;-59
2021/06/18 04:23:55;;;;;;;3.30;3.00;;;;;26.40;100174.00;;;;2087009;28;20216;-58
2021/06/18 04:24:56;;;;;;;3.20;3.00;;;;;26.40;100171.00;;;;2071514;28;20556;-57
2021/06/18 04:25:57;;;;;;;3.63;3.43;;;;;26.40;100170.00;;;;2071360;28;20218;-57
2021/06/18 04:26:57;;;;;;;3.10;2.90;;;;;26.40;100169.00;;;;2072586;28;20217;-64
2021/06/18 04:27:58;;;;;;;3.13;2.93;;;;;26.40;100168.00;;;;2067561;28;20276;-58
2021/06/18 04:28:59;;;;;;;2.80;2.60;;;;;26.40;100167.00;;;;2071514;28;20207;-58
2021/06/18 04:29:59;;;;;;;3.00;2.80;;;;;26.40;100168.00;;;;2071200;28;20450;-60
2021/06/18 04:30:59;;;;;;;3.50;3.30;;;;;26.40;100164.00;;;;2070476;28;20210;-59
2021/06/18 04:32:00;;;;;;;3.00;2.80;;;;;26.40;100168.00;;;;2070653;28;20218;-59
2021/06/18 04:33:00;;;;;;;3.60;3.37;;;;;26.40;100167.00;;;;2070746;28;20209;-58
2021/06/18 04:34:00;;;;;;;3.00;2.80;;;;;26.40;100166.00;;;;2070598;28;20214;-58
2021/06/18 04:35:01;;;;;;;3.50;3.30;;;;;26.40;100175.00;;;;2072098;28;20569;-58
2021/06/18 04:36:02;;;;;;;3.30;3.00;;;;;26.40;100174.00;;;;2070928;28;20288;-58
2021/06/18 04:37:03;;;;;;;2.92;2.72;;;;;26.40;100172.00;;;;2070711;28;20222;-58
2021/06/18 04:38:03;;;;;;;3.03;2.83;;;;;26.40;100182.00;;;;2070927;28;20210;-57
2021/06/18 04:39:04;;;;;;;3.10;2.90;;;;;26.40;100177.00;;;;2070965;28;20214;-58
2021/06/18 04:40:07;;;;;;;3.30;3.00;;;;;26.40;100172.00;;;;2070038;28;20214;-58
2021/06/18 04:41:07;;;;;;;3.63;3.33;;;;;26.40;100180.00;;;;2069738;28;20457;-58
2021/06/18 04:42:08;;;;;;;2.77;2.67;;;;;26.40;100181.00;;;;2071227;28;21327;-57
2021/06/18 04:43:08;;;;;;;2.97;2.77;;;;;26.40;100181.00;;;;2070853;28;20213;-58
2021/06/18 04:44:09;;;;;;;3.27;3.07;;;;;26.40;100181.00;;;;2070991;28;20218;-56
2021/06/18 04:45:10;;;;;;;3.30;3.10;;;;;26.40;100183.00;;;;2071398;28;20230;-58
2021/06/18 04:46:10;;;;;;;4.40;3.03;;;;;26.40;100182.00;;;;2070613;28;20266;-58
2021/06/18 04:47:10;;;;;;;3.37;3.07;;;;;26.40;100178.00;;;;2070869;28;20457;-56
2021/06/18 04:48:11;;;;;;;3.50;3.30;;;;;26.40;100173.00;;;;2070719;28;20226;-56
2021/06/18 04:49:11;;;;;;;3.70;3.40;;;;;26.40;100176.00;;;;2073284;28;20226;-56
2021/06/18 04:50:12;;;;;;;4.10;3.80;;;;;26.40;100176.00;;;;2078870;28;20556;-54
2021/06/18 04:51:15;;;;;;;3.27;3.07;;;;;26.40;100177.00;;;;2078765;28;20214;-56
2021/06/18 04:52:16;;;;;;;3.40;3.10;;;;;26.40;100179.00;;;;2080055;28;20252;-56
2021/06/18 04:53:16;;;;;;;3.23;3.03;;;;;26.40;100181.00;;;;2080044;28;20444;-56
2021/06/18 04:54:17;;;;;;;3.20;3.00;;;;;26.40;100178.00;;;;2079314;28;20452;-56
2021/06/18 04:55:18;;;;;;;3.30;3.00;;;;;26.40;100178.00;;;;2079536;28;20296;-56
2021/06/18 04:56:18;;;;;;;3.37;3.17;;;;;26.20;100180.00;;;;2075207;28;20241;-56
2021/06/18 04:57:18;;;;;;;3.20;2.97;;;;;26.40;100170.00;;;;2074442;28;20220;-56
2021/06/18 04:58:19;;;;;;;3.40;3.20;;;;;26.40;100181.00;;;;2071628;28;20215;-56
2021/06/18 04:59:20;;;;;;;3.70;3.40;;;;;26.40;100172.00;;;;2070840;28;20687;-56
2021/06/18 05:00:24;;;;;;;3.30;3.10;;;;;26.40;100176.00;;;;2077740;28;20248;-59
2021/06/18 05:01:24;;;;;;;3.70;3.40;;;;;26.40;100179.00;;;;2069158;28;20496;-57
2021/06/18 05:02:25;;;;;;;3.47;3.17;;;;;26.40;100175.00;;;;2078949;28;20459;-56
2021/06/18 05:03:25;;;;;;;3.07;2.87;;;;;26.40;100176.00;;;;2074690;28;20289;-56
2021/06/18 05:04:25;;;;;;;3.20;3.00;;;;;26.40;100172.00;;;;2072254;28;20218;-56
2021/06/18 05:05:27;;;;;;;3.30;3.10;;;;;26.40;100169.00;;;;2079281;28;20566;-56
2021/06/18 05:06:27;;;;;;;3.20;3.00;;;;;26.40;100179.00;;;;2072590;28;20264;-56